createdAt,value
2023-08-23T00:02:21.890Z,18.84
2023-08-23T00:04:50.572Z,18.80
2023-08-23T00:07:17.464Z,18.78
2023-08-23T00:09:44.160Z,18.77
2023-08-23T00:12:10.711Z,18.75
2023-08-23T00:14:37.237Z,18.72
2023-08-23T00:17:03.960Z,18.69
2023-08-23T00:19:30.605Z,18.66
2023-08-23T00:21:57.073Z,18.64
2023-08-23T00:24:23.626Z,18.62
2023-08-23T00:26:50.189Z,18.58
2023-08-23T00:29:16.787Z,18.57
2023-08-23T00:31:43.325Z,18.55
2023-08-23T00:34:09.848Z,18.54
2023-08-23T00:36:37.033Z,18.49
2023-08-23T00:39:03.564Z,18.47
2023-08-23T00:41:30.049Z,18.44
2023-08-23T00:43:56.686Z,18.40
2023-08-23T00:46:23.261Z,18.36
2023-08-23T00:48:51.682Z,18.33
2023-08-23T00:51:19.619Z,18.34
2023-08-23T00:53:47.450Z,18.31
2023-08-23T00:56:14.093Z,18.30
2023-08-23T00:58:40.770Z,18.31
2023-08-23T01:01:07.951Z,18.28
2023-08-23T01:03:34.683Z,18.26
2023-08-23T01:06:09.224Z,18.25
2023-08-23T01:08:39.516Z,18.23
2023-08-23T01:11:14.469Z,18.21
2023-08-23T01:14:04.952Z,18.19
2023-08-23T01:16:33.897Z,18.19
2023-08-23T01:19:04.512Z,18.17
2023-08-23T01:21:37.257Z,18.17
2023-08-23T01:24:09.630Z,18.15
2023-08-23T01:26:39.654Z,18.15
2023-08-23T01:29:06.299Z,18.13
2023-08-23T01:31:39.244Z,18.10
2023-08-23T01:34:16.569Z,18.10
2023-08-23T01:36:43.825Z,18.10
2023-08-23T01:39:12.050Z,18.11
2023-08-23T01:41:39.566Z,18.09
2023-08-23T01:44:06.293Z,18.10
2023-08-23T01:46:35.203Z,18.08
2023-08-23T01:49:02.680Z,18.05
2023-08-23T01:51:29.244Z,18.05
2023-08-23T01:53:55.818Z,18.02
2023-08-23T01:56:22.363Z,18.00
2023-08-23T01:58:48.909Z,17.99
2023-08-23T02:01:15.477Z,17.99
2023-08-23T02:03:42.124Z,17.99
2023-08-23T02:06:08.674Z,17.97
2023-08-23T02:08:36.607Z,17.98
2023-08-23T02:11:03.221Z,17.96
2023-08-23T02:13:29.746Z,17.95
2023-08-23T02:15:56.520Z,17.94
2023-08-23T02:18:23.272Z,17.91
2023-08-23T02:20:59.637Z,17.89
2023-08-23T02:23:26.664Z,17.86
2023-08-23T02:25:53.552Z,17.83
2023-08-23T02:28:20.243Z,17.79
2023-08-23T02:30:46.966Z,17.78
2023-08-23T02:33:13.568Z,17.73
2023-08-23T02:35:48.164Z,17.72
2023-08-23T02:38:15.626Z,17.71
2023-08-23T02:40:43.714Z,17.70
2023-08-23T02:43:10.641Z,17.69
2023-08-23T02:45:41.417Z,17.67
2023-08-23T02:48:11.787Z,17.66
2023-08-23T02:50:39.151Z,17.65
2023-08-23T02:53:05.916Z,17.64
2023-08-23T02:55:38.886Z,17.63
2023-08-23T02:58:06.267Z,17.60
2023-08-23T03:00:32.813Z,17.56
2023-08-23T03:02:59.375Z,17.53
2023-08-23T03:05:26.018Z,17.49
2023-08-23T03:07:52.587Z,17.47
2023-08-23T03:10:19.118Z,17.43
2023-08-23T03:12:45.661Z,17.40
2023-08-23T03:15:12.267Z,17.38
2023-08-23T03:17:38.882Z,17.35
2023-08-23T03:20:06.151Z,17.31
2023-08-23T03:22:32.724Z,17.26
2023-08-23T03:24:59.266Z,17.24
2023-08-23T03:27:26.922Z,17.23
2023-08-23T03:29:53.454Z,17.23
2023-08-23T03:32:22.738Z,17.22
2023-08-23T03:34:49.452Z,17.23
2023-08-23T03:37:16.055Z,17.20
2023-08-23T03:39:42.608Z,17.19
2023-08-23T03:42:09.159Z,17.17
2023-08-23T03:44:35.695Z,17.16
2023-08-23T03:47:02.303Z,17.14
2023-08-23T03:49:29.706Z,17.13
2023-08-23T03:51:56.403Z,17.12
2023-08-23T03:54:23.127Z,17.10
2023-08-23T03:56:49.706Z,17.10
2023-08-23T03:59:16.212Z,17.09
2023-08-23T04:01:44.639Z,17.08
2023-08-23T04:04:11.641Z,17.04
2023-08-23T04:06:38.410Z,17.02
2023-08-23T04:09:05.021Z,17.01
2023-08-23T04:11:31.674Z,16.98
2023-08-23T04:13:58.199Z,16.95
2023-08-23T04:16:24.870Z,16.95
2023-08-23T04:18:51.492Z,16.97
2023-08-23T04:21:18.132Z,16.98
2023-08-23T04:23:44.668Z,17.01
2023-08-23T04:26:11.180Z,17.04
2023-08-23T04:28:38.434Z,17.03
2023-08-23T04:31:05.041Z,17.03
2023-08-23T04:33:31.878Z,17.06
2023-08-23T04:35:58.583Z,17.07
2023-08-23T04:38:25.162Z,17.06
2023-08-23T04:41:01.433Z,17.08
2023-08-23T04:43:28.024Z,17.07
2023-08-23T04:45:59.318Z,17.08
2023-08-23T04:48:28.100Z,17.06
2023-08-23T04:50:56.088Z,17.05
2023-08-23T04:53:22.731Z,17.04
2023-08-23T04:55:49.494Z,17.03
2023-08-23T04:58:16.986Z,17.02
2023-08-23T05:00:47.224Z,17.04
2023-08-23T05:03:13.955Z,17.01
2023-08-23T05:05:42.081Z,17.03
2023-08-23T05:08:08.677Z,17.02
2023-08-23T05:10:36.182Z,17.01
2023-08-23T05:13:03.048Z,17.01
2023-08-23T05:15:29.593Z,17.03
2023-08-23T05:17:56.352Z,17.07
2023-08-23T05:20:22.958Z,17.10
2023-08-23T05:22:49.499Z,17.12
2023-08-23T05:25:16.053Z,17.14
2023-08-23T05:27:42.593Z,17.13
2023-08-23T05:30:09.717Z,17.14
2023-08-23T05:32:36.353Z,17.13
2023-08-23T05:35:04.322Z,17.10
2023-08-23T05:37:30.853Z,17.08
2023-08-23T05:39:57.442Z,17.07
2023-08-23T05:42:24.023Z,17.07
2023-08-23T05:44:50.566Z,17.09
2023-08-23T05:47:17.068Z,17.09
2023-08-23T05:49:43.990Z,17.11
2023-08-23T05:52:10.634Z,17.12
2023-08-23T05:54:37.240Z,17.14
2023-08-23T05:57:04.813Z,17.17
2023-08-23T05:59:31.403Z,17.19
2023-08-23T06:01:58.055Z,17.22
2023-08-23T06:04:24.628Z,17.24
2023-08-23T06:06:51.170Z,17.29
2023-08-23T06:09:20.658Z,17.35
2023-08-23T06:11:47.220Z,17.40
2023-08-23T06:14:21.384Z,17.48
2023-08-23T06:16:48.116Z,17.55
2023-08-23T06:19:14.839Z,17.62
2023-08-23T06:21:42.847Z,17.70
2023-08-23T06:24:10.137Z,17.77
2023-08-23T06:26:37.053Z,17.86
2023-08-23T06:29:04.646Z,17.93
2023-08-23T06:31:31.620Z,18.01
2023-08-23T06:33:58.202Z,18.09
2023-08-23T06:36:24.767Z,18.18
2023-08-23T06:38:51.350Z,18.26
2023-08-23T06:41:17.988Z,18.37
2023-08-23T06:43:48.160Z,18.47
2023-08-23T06:46:14.783Z,18.55
2023-08-23T06:48:42.269Z,18.65
2023-08-23T06:51:08.785Z,18.76
2023-08-23T06:53:36.587Z,18.86
2023-08-23T06:56:04.681Z,18.96
2023-08-23T06:58:31.384Z,19.08
2023-08-23T07:00:58.184Z,19.18
2023-08-23T07:03:24.988Z,19.30
2023-08-23T07:05:51.634Z,19.41
2023-08-23T07:08:18.882Z,19.52
2023-08-23T07:10:45.831Z,19.61
2023-08-23T07:13:12.540Z,19.70
2023-08-23T07:15:40.100Z,19.80
2023-08-23T07:18:06.899Z,19.91
2023-08-23T07:20:33.428Z,19.99
2023-08-23T07:23:00.087Z,20.05
2023-08-23T07:25:26.675Z,20.12
2023-08-23T07:27:53.518Z,20.19
2023-08-23T07:30:20.088Z,20.27
2023-08-23T07:32:46.789Z,20.34
2023-08-23T07:35:13.385Z,20.44
2023-08-23T07:37:39.976Z,20.51
2023-08-23T07:40:08.008Z,20.59
2023-08-23T07:42:34.622Z,20.60
2023-08-23T07:45:01.175Z,20.66
2023-08-23T07:47:27.710Z,20.76
2023-08-23T07:49:54.295Z,20.87
2023-08-23T07:52:20.839Z,20.96
2023-08-23T07:54:47.333Z,21.04
2023-08-23T07:57:13.834Z,21.10
2023-08-23T07:59:40.461Z,21.19
2023-08-23T08:02:07.390Z,21.27
2023-08-23T08:04:34.862Z,21.34
2023-08-23T08:07:01.513Z,21.43
2023-08-23T08:09:28.088Z,21.50
2023-08-23T08:11:54.660Z,21.59
2023-08-23T08:14:21.194Z,21.68
2023-08-23T08:16:47.830Z,21.68
2023-08-23T08:19:14.503Z,21.76
2023-08-23T08:21:41.630Z,21.84
2023-08-23T08:24:08.257Z,21.94
2023-08-23T08:26:34.845Z,22.04
2023-08-23T08:29:01.342Z,22.11
2023-08-23T08:31:27.916Z,22.22
2023-08-23T08:33:54.553Z,22.36
2023-08-23T08:36:21.113Z,22.48
2023-08-23T08:38:47.621Z,22.61
2023-08-23T08:41:14.373Z,22.74
2023-08-23T08:43:41.408Z,22.87
2023-08-23T08:46:08.232Z,22.98
2023-08-23T08:48:34.832Z,23.09
2023-08-23T08:51:04.134Z,23.20
2023-08-23T08:53:33.403Z,23.30
2023-08-23T08:56:01.389Z,23.41
2023-08-23T08:58:29.626Z,23.50
2023-08-23T09:00:59.821Z,23.63
2023-08-23T09:03:27.581Z,23.74
2023-08-23T09:05:54.876Z,23.89
2023-08-23T09:08:22.010Z,24.00
2023-08-23T09:10:48.525Z,24.10
2023-08-23T09:13:15.075Z,24.24
2023-08-23T09:15:41.799Z,24.37
2023-08-23T09:18:08.487Z,24.50
2023-08-23T09:20:36.754Z,24.66
2023-08-23T09:23:03.413Z,24.81
2023-08-23T09:25:30.012Z,24.92
2023-08-23T09:27:57.329Z,25.03
2023-08-23T09:30:24.268Z,25.15
2023-08-23T09:32:50.933Z,25.29
2023-08-23T09:35:18.676Z,25.39
2023-08-23T09:37:49.838Z,25.52
2023-08-23T09:40:16.635Z,25.64
2023-08-23T09:42:44.689Z,25.75
2023-08-23T09:45:16.177Z,25.89
2023-08-23T09:47:55.739Z,26.03
2023-08-23T09:50:24.674Z,26.13
2023-08-23T09:53:20.985Z,26.25
2023-08-23T09:55:48.163Z,26.34
2023-08-23T09:58:14.797Z,26.46
2023-08-23T10:00:42.166Z,26.57
2023-08-23T10:03:10.214Z,26.74
2023-08-23T10:05:37.259Z,26.91
2023-08-23T10:08:03.893Z,26.99
2023-08-23T10:10:31.614Z,27.09
2023-08-23T10:13:05.460Z,27.28
2023-08-23T10:15:38.903Z,27.44
2023-08-23T10:18:10.241Z,27.56
2023-08-23T10:20:38.351Z,27.72
2023-08-23T10:23:19.689Z,27.77
2023-08-23T10:25:48.248Z,27.89
2023-08-23T10:28:17.352Z,27.99
2023-08-23T10:30:46.117Z,28.04
2023-08-23T10:33:17.588Z,28.04
2023-08-23T10:35:45.989Z,28.19
2023-08-23T10:38:13.348Z,28.33
2023-08-23T10:40:41.344Z,28.50
2023-08-23T10:43:13.112Z,28.70
2023-08-23T10:46:09.581Z,28.88
2023-08-23T10:48:36.808Z,28.95
2023-08-23T10:51:03.796Z,29.16
2023-08-23T10:53:31.330Z,29.33
2023-08-23T10:56:01.688Z,29.41
2023-08-23T10:58:28.200Z,29.52
2023-08-23T11:00:55.651Z,29.73
2023-08-23T11:03:23.029Z,29.82
2023-08-23T11:05:50.057Z,29.82
2023-08-23T11:08:17.314Z,29.98
2023-08-23T11:10:44.108Z,30.09
2023-08-23T11:13:10.814Z,30.05
2023-08-23T11:15:37.840Z,30.05
2023-08-23T11:18:04.896Z,30.30
2023-08-23T11:20:31.633Z,30.47
2023-08-23T11:22:58.273Z,30.58
2023-08-23T11:25:24.797Z,30.66
2023-08-23T11:27:52.099Z,30.86
2023-08-23T11:30:23.544Z,31.01
2023-08-23T11:32:50.259Z,31.08
2023-08-23T11:35:23.155Z,31.18
2023-08-23T11:37:50.819Z,31.34
2023-08-23T11:40:18.083Z,31.34
2023-08-23T11:42:46.527Z,31.36
2023-08-23T11:45:13.193Z,31.48
2023-08-23T11:47:40.327Z,31.46
2023-08-23T11:50:08.637Z,31.65
2023-08-23T11:52:35.305Z,31.79
2023-08-23T11:55:05.772Z,32.02
2023-08-23T11:57:35.420Z,32.19
2023-08-23T12:00:02.469Z,32.25
2023-08-23T12:02:29.090Z,32.43
2023-08-23T12:04:56.021Z,32.34
2023-08-23T12:07:22.575Z,32.50
2023-08-23T12:09:49.066Z,32.60
2023-08-23T12:12:15.714Z,32.74
2023-08-23T12:14:42.539Z,32.69
2023-08-23T12:17:09.219Z,32.62
2023-08-23T12:19:37.863Z,32.52
2023-08-23T12:22:06.632Z,32.54
2023-08-23T12:24:33.253Z,32.61
2023-08-23T12:27:00.988Z,32.80
2023-08-23T12:29:27.853Z,32.95
2023-08-23T12:31:57.197Z,33.03
2023-08-23T12:34:25.382Z,33.18
2023-08-23T12:36:51.960Z,33.25
2023-08-23T12:39:18.487Z,33.23
2023-08-23T12:41:45.124Z,33.26
2023-08-23T12:44:11.672Z,33.35
2023-08-23T12:46:38.188Z,33.42
2023-08-23T12:49:08.439Z,33.50
2023-08-23T12:51:35.691Z,33.60
2023-08-23T12:54:02.322Z,33.76
2023-08-23T12:56:28.865Z,33.92
2023-08-23T12:58:55.525Z,34.02
2023-08-23T13:01:22.262Z,34.11
2023-08-23T13:03:48.805Z,34.15
2023-08-23T13:06:15.341Z,34.16
2023-08-23T13:08:41.884Z,33.90
2023-08-23T13:11:08.784Z,34.07
2023-08-23T13:13:36.866Z,34.22
2023-08-23T13:16:03.463Z,34.29
2023-08-23T13:18:30.047Z,34.44
2023-08-23T13:20:56.568Z,34.58
2023-08-23T13:23:23.937Z,34.78
2023-08-23T13:25:50.919Z,34.99
2023-08-23T13:28:18.088Z,35.12
2023-08-23T13:30:44.873Z,35.04
2023-08-23T13:33:11.459Z,35.21
2023-08-23T13:35:38.035Z,35.36
2023-08-23T13:38:04.746Z,35.37
2023-08-23T13:40:31.220Z,35.37
2023-08-23T13:43:13.862Z,35.30
2023-08-23T13:45:46.125Z,34.77
2023-08-23T13:48:13.286Z,34.53
2023-08-23T13:50:39.915Z,34.64
2023-08-23T13:53:06.480Z,34.95
2023-08-23T13:55:33.073Z,35.14
2023-08-23T13:57:59.691Z,35.33
2023-08-23T14:00:26.356Z,35.54
2023-08-23T14:02:52.905Z,35.57
2023-08-23T14:05:19.821Z,35.68
2023-08-23T14:07:46.655Z,35.68
2023-08-23T14:10:13.662Z,35.67
2023-08-23T14:12:40.177Z,35.69
2023-08-23T14:15:07.210Z,35.64
2023-08-23T14:17:33.776Z,35.50
2023-08-23T14:20:01.327Z,35.28
2023-08-23T14:22:27.917Z,35.50
2023-08-23T14:24:54.491Z,35.63
2023-08-23T14:27:21.028Z,35.75
2023-08-23T14:29:47.560Z,35.89
2023-08-23T14:32:14.106Z,36.01
2023-08-23T14:34:40.718Z,36.14
2023-08-23T14:37:07.276Z,36.25
2023-08-23T14:39:33.820Z,36.46
2023-08-23T14:42:00.381Z,36.61
2023-08-23T14:44:30.179Z,36.75
2023-08-23T14:46:58.286Z,36.69
2023-08-23T14:49:24.756Z,36.78
2023-08-23T14:51:51.260Z,37.01
2023-08-23T14:54:17.840Z,37.17
2023-08-23T14:56:44.355Z,37.38
2023-08-23T14:59:10.863Z,37.62
2023-08-23T15:01:37.551Z,37.81
2023-08-23T15:04:04.281Z,37.80
2023-08-23T15:06:30.819Z,37.79
2023-08-23T15:08:57.287Z,37.99
2023-08-23T15:11:23.812Z,38.13
2023-08-23T15:13:51.524Z,38.22
2023-08-23T15:16:18.178Z,38.24
2023-08-23T15:18:44.757Z,38.14
2023-08-23T15:21:11.367Z,37.92
2023-08-23T15:23:37.961Z,37.83
2023-08-23T15:26:04.505Z,37.94
2023-08-23T15:28:34.002Z,38.08
2023-08-23T15:31:08.288Z,38.20
2023-08-23T15:33:34.779Z,38.21
2023-08-23T15:36:04.133Z,38.20
2023-08-23T15:38:31.075Z,38.29
2023-08-23T15:40:57.571Z,38.31
2023-08-23T15:43:24.145Z,38.32
2023-08-23T15:45:53.675Z,38.29
2023-08-23T15:48:21.305Z,38.22
2023-08-23T15:50:48.945Z,38.02
2023-08-23T15:53:17.194Z,38.08
2023-08-23T15:55:44.946Z,38.14
2023-08-23T15:58:11.456Z,38.27
2023-08-23T16:00:38.135Z,38.35
2023-08-23T16:03:04.881Z,38.44
2023-08-23T16:05:31.441Z,38.33
2023-08-23T16:07:57.954Z,38.33
2023-08-23T16:10:24.501Z,38.27
2023-08-23T16:12:51.012Z,38.32
2023-08-23T16:15:17.694Z,38.34
2023-08-23T16:17:44.223Z,38.42
2023-08-23T16:20:11.206Z,38.47
2023-08-23T16:22:37.830Z,38.59
2023-08-23T16:25:05.287Z,38.69
2023-08-23T16:27:31.788Z,38.63
2023-08-23T16:30:00.017Z,38.68
2023-08-23T16:32:26.531Z,38.64
2023-08-23T16:34:53.090Z,38.61
2023-08-23T16:37:19.577Z,38.52
2023-08-23T16:39:46.151Z,38.28
2023-08-23T16:42:12.702Z,38.02
2023-08-23T16:44:39.214Z,37.56
2023-08-23T16:47:05.886Z,37.13
2023-08-23T16:49:32.414Z,36.67
2023-08-23T16:51:58.868Z,36.18
2023-08-23T16:54:25.428Z,35.77
2023-08-23T16:56:51.913Z,35.47
2023-08-23T16:59:18.460Z,35.07
2023-08-23T17:01:45.045Z,34.77
2023-08-23T17:04:11.586Z,34.45
2023-08-23T17:06:38.246Z,34.15
2023-08-23T17:09:04.997Z,33.84
2023-08-23T17:11:31.703Z,33.58
2023-08-23T17:13:58.233Z,33.31
2023-08-23T17:16:24.848Z,33.06
2023-08-23T17:18:51.303Z,32.82
2023-08-23T17:21:18.216Z,32.58
2023-08-23T17:23:44.718Z,32.30
2023-08-23T17:26:11.354Z,32.08
2023-08-23T17:28:39.449Z,31.88
2023-08-23T17:31:09.941Z,31.67
2023-08-23T17:33:36.874Z,31.47
2023-08-23T17:36:04.177Z,31.27
2023-08-23T17:38:30.672Z,31.10
2023-08-23T17:40:57.192Z,30.92
2023-08-23T17:43:23.985Z,30.72
2023-08-23T17:45:50.472Z,30.49
2023-08-23T17:48:16.973Z,30.35
2023-08-23T17:50:43.694Z,30.19
2023-08-23T17:53:10.152Z,30.08
2023-08-23T17:55:36.666Z,29.91
2023-08-23T17:58:03.359Z,29.77
2023-08-23T18:00:29.875Z,29.57
2023-08-23T18:02:56.421Z,29.35
2023-08-23T18:05:23.120Z,29.16
2023-08-23T18:07:49.667Z,28.91
2023-08-23T18:10:16.243Z,28.72
2023-08-23T18:12:42.782Z,28.52
2023-08-23T18:15:09.736Z,28.33
2023-08-23T18:17:36.289Z,28.17
2023-08-23T18:20:02.904Z,28.00
2023-08-23T18:22:29.382Z,27.83
2023-08-23T18:24:55.852Z,27.68
2023-08-23T18:27:23.529Z,27.41
2023-08-23T18:29:50.377Z,27.25
2023-08-23T18:32:16.868Z,27.11
2023-08-23T18:34:43.360Z,26.97
2023-08-23T18:37:09.908Z,26.85
2023-08-23T18:39:36.810Z,26.69
2023-08-23T18:42:03.544Z,26.57
2023-08-23T18:44:32.069Z,26.45
2023-08-23T18:46:58.760Z,26.33
2023-08-23T18:49:25.262Z,26.20
2023-08-23T18:51:51.761Z,26.09
2023-08-23T18:54:18.356Z,25.98
2023-08-23T18:56:44.881Z,25.85
2023-08-23T18:59:12.174Z,25.73
2023-08-23T19:01:38.807Z,25.60
2023-08-23T19:04:05.459Z,25.50
2023-08-23T19:06:32.133Z,25.40
2023-08-23T19:08:58.635Z,25.32
2023-08-23T19:11:25.186Z,25.22
2023-08-23T19:13:51.707Z,25.13
2023-08-23T19:16:18.735Z,25.06
2023-08-23T19:18:45.947Z,24.97
2023-08-23T19:21:12.668Z,24.91
2023-08-23T19:23:39.433Z,24.84
2023-08-23T19:26:05.952Z,24.78
2023-08-23T19:28:32.506Z,24.72
2023-08-23T19:30:58.996Z,24.65
2023-08-23T19:33:25.509Z,24.56
2023-08-23T19:35:52.266Z,24.53
2023-08-23T19:38:20.615Z,24.47
2023-08-23T19:40:47.690Z,24.42
2023-08-23T19:43:14.855Z,24.36
2023-08-23T19:45:41.771Z,24.32
2023-08-23T19:48:25.317Z,24.26
2023-08-23T19:50:54.873Z,24.19
2023-08-23T19:53:21.387Z,24.13
2023-08-23T19:55:47.989Z,24.07
2023-08-23T19:58:20.031Z,24.00
2023-08-23T20:00:46.676Z,23.91
2023-08-23T20:03:13.524Z,23.88
2023-08-23T20:05:46.733Z,23.83
2023-08-23T20:08:13.396Z,23.76
2023-08-23T20:10:39.926Z,23.72
2023-08-23T20:13:06.454Z,23.68
2023-08-23T20:15:33.835Z,23.60
2023-08-23T20:18:00.443Z,23.51
2023-08-23T20:20:27.117Z,23.43
2023-08-23T20:22:53.723Z,23.38
2023-08-23T20:25:20.441Z,23.32
2023-08-23T20:27:47.060Z,23.23
2023-08-23T20:30:13.756Z,23.20
2023-08-23T20:32:40.307Z,23.13
2023-08-23T20:35:07.837Z,23.09
2023-08-23T20:37:34.364Z,23.07
2023-08-23T20:40:00.913Z,23.02
2023-08-23T20:42:27.435Z,22.99
2023-08-23T20:44:53.993Z,22.94
2023-08-23T20:47:20.526Z,22.89
2023-08-23T20:49:46.998Z,22.80
2023-08-23T20:52:13.581Z,22.77
2023-08-23T20:54:40.093Z,22.71
2023-08-23T20:57:06.615Z,22.67
2023-08-23T20:59:33.233Z,22.63
2023-08-23T21:01:59.730Z,22.59
2023-08-23T21:04:26.838Z,22.54
2023-08-23T21:06:53.488Z,22.48
2023-08-23T21:09:19.981Z,22.44
2023-08-23T21:11:46.526Z,22.38
2023-08-23T21:14:13.047Z,22.35
2023-08-23T21:16:39.609Z,22.28
2023-08-23T21:19:07.232Z,22.23
2023-08-23T21:21:33.969Z,22.16
2023-08-23T21:24:00.466Z,22.13
2023-08-23T21:26:27.100Z,22.08
2023-08-23T21:28:53.882Z,22.01
2023-08-23T21:31:20.450Z,21.97
2023-08-23T21:33:47.066Z,21.90
2023-08-23T21:36:13.706Z,21.81
2023-08-23T21:38:40.380Z,21.75
2023-08-23T21:41:07.005Z,21.72
2023-08-23T21:43:33.779Z,21.68
2023-08-23T21:46:01.682Z,21.68
2023-08-23T21:48:28.293Z,21.64
2023-08-23T21:50:54.936Z,21.59
2023-08-23T21:53:21.638Z,21.54
2023-08-23T21:55:56.634Z,21.50
2023-08-23T21:58:30.125Z,21.46
2023-08-23T22:00:59.779Z,21.40
2023-08-23T22:03:40.547Z,21.34
2023-08-23T22:06:09.681Z,21.33
2023-08-23T22:08:42.528Z,21.33
2023-08-23T22:11:12.095Z,21.31
2023-08-23T22:13:40.368Z,21.29
2023-08-23T22:16:07.449Z,21.26
2023-08-23T22:18:35.098Z,21.26
2023-08-23T22:21:03.447Z,21.26
2023-08-23T22:23:29.925Z,21.24
2023-08-23T22:25:58.508Z,21.24
2023-08-23T22:28:25.380Z,21.22
2023-08-23T22:30:52.241Z,21.12
2023-08-23T22:33:18.850Z,21.07
2023-08-23T22:35:46.674Z,21.05
2023-08-23T22:38:13.784Z,21.02
2023-08-23T22:40:46.425Z,20.99
2023-08-23T22:43:13.339Z,20.97
2023-08-23T22:45:40.009Z,20.93
2023-08-23T22:48:06.897Z,20.91
2023-08-23T22:50:33.492Z,20.89
2023-08-23T22:53:00.124Z,20.87
2023-08-23T22:55:26.718Z,20.84
2023-08-23T22:57:53.941Z,20.82
2023-08-23T23:00:20.582Z,20.79
2023-08-23T23:02:47.185Z,20.76
2023-08-23T23:05:13.762Z,20.68
2023-08-23T23:07:40.728Z,20.66
2023-08-23T23:10:08.142Z,20.61
2023-08-23T23:12:35.262Z,20.57
2023-08-23T23:15:04.311Z,20.51
2023-08-23T23:17:31.942Z,20.46
2023-08-23T23:19:58.603Z,20.45
2023-08-23T23:22:25.131Z,20.41
2023-08-23T23:24:51.680Z,20.38
2023-08-23T23:27:18.212Z,20.35
2023-08-23T23:29:44.694Z,20.31
2023-08-23T23:32:12.218Z,20.28
2023-08-23T23:34:38.860Z,20.25
2023-08-23T23:37:05.699Z,20.20
2023-08-23T23:39:32.329Z,20.17
2023-08-23T23:41:58.900Z,20.13
2023-08-23T23:44:25.443Z,20.13
2023-08-23T23:46:52.031Z,20.11
2023-08-23T23:49:18.797Z,20.08
2023-08-23T23:51:45.347Z,20.07
2023-08-23T23:54:11.897Z,20.05
2023-08-23T23:56:38.429Z,20.04
2023-08-23T23:59:04.984Z,20.03
